sensor_id;sensor_type;location;lat;lon;timestamp;P1;durP1;ratioP1;P2;durP2;ratioP2
24401;SDS011;12539;48.808;11.292;2022-09-23T00:00:45;5.40;;;4.07;;
24401;SDS011;12539;48.808;11.292;2022-09-23T00:03:11;5.68;;;3.63;;
24401;SDS011;12539;48.808;11.292;2022-09-23T00:05:38;6.60;;;4.72;;
24401;SDS011;12539;48.808;11.292;2022-09-23T00:08:05;6.55;;;4.15;;
24401;SDS011;12539;48.808;11.292;2022-09-23T00:10:31;4.80;;;3.72;;
24401;SDS011;12539;48.808;11.292;2022-09-23T00:13:00;4.32;;;3.22;;
24401;SDS011;12539;48.808;11.292;2022-09-23T00:15:25;4.47;;;3.28;;
24401;SDS011;12539;48.808;11.292;2022-09-23T00:17:52;4.82;;;3.83;;
24401;SDS011;12539;48.808;11.292;2022-09-23T00:20:18;5.60;;;4.22;;
24401;SDS011;12539;48.808;11.292;2022-09-23T00:22:44;5.30;;;3.80;;
24401;SDS011;12539;48.808;11.292;2022-09-23T00:25:09;4.95;;;3.55;;
24401;SDS011;12539;48.808;11.292;2022-09-23T00:27:36;5.28;;;3.92;;
24401;SDS011;12539;48.808;11.292;2022-09-23T00:30:03;5.03;;;3.63;;
24401;SDS011;12539;48.808;11.292;2022-09-23T00:32:31;11.02;;;4.40;;
24401;SDS011;12539;48.808;11.292;2022-09-23T00:34:57;5.93;;;3.55;;
24401;SDS011;12539;48.808;11.292;2022-09-23T00:37:23;4.60;;;3.88;;
24401;SDS011;12539;48.808;11.292;2022-09-23T00:39:49;5.32;;;3.55;;
24401;SDS011;12539;48.808;11.292;2022-09-23T00:42:16;5.45;;;3.38;;
24401;SDS011;12539;48.808;11.292;2022-09-23T00:44:54;5.70;;;4.30;;
24401;SDS011;12539;48.808;11.292;2022-09-23T00:50:05;5.30;;;4.20;;
24401;SDS011;12539;48.808;11.292;2022-09-23T00:52:34;5.97;;;3.43;;
24401;SDS011;12539;48.808;11.292;2022-09-23T00:55:03;5.38;;;4.03;;
24401;SDS011;12539;48.808;11.292;2022-09-23T00:57:41;4.50;;;3.63;;
24401;SDS011;12539;48.808;11.292;2022-09-23T01:00:10;6.32;;;3.88;;
24401;SDS011;12539;48.808;11.292;2022-09-23T01:02:36;4.50;;;4.03;;
24401;SDS011;12539;48.808;11.292;2022-09-23T01:05:03;4.18;;;3.28;;
24401;SDS011;12539;48.808;11.292;2022-09-23T01:07:31;5.32;;;4.05;;
24401;SDS011;12539;48.808;11.292;2022-09-23T01:09:58;7.13;;;4.60;;
24401;SDS011;12539;48.808;11.292;2022-09-23T01:12:29;7.68;;;4.50;;
24401;SDS011;12539;48.808;11.292;2022-09-23T01:15:26;5.55;;;4.55;;
24401;SDS011;12539;48.808;11.292;2022-09-23T01:34:34;5.40;;;4.60;;
24401;SDS011;12539;48.808;11.292;2022-09-23T01:37:08;4.75;;;3.85;;
24401;SDS011;12539;48.808;11.292;2022-09-23T01:39:48;4.18;;;3.50;;
24401;SDS011;12539;48.808;11.292;2022-09-23T01:42:36;7.28;;;4.43;;
24401;SDS011;12539;48.808;11.292;2022-09-23T01:45:16;5.70;;;4.45;;
24401;SDS011;12539;48.808;11.292;2022-09-23T01:50:50;6.90;;;4.68;;
24401;SDS011;12539;48.808;11.292;2022-09-23T01:53:22;4.80;;;4.10;;
24401;SDS011;12539;48.808;11.292;2022-09-23T01:55:59;5.10;;;4.55;;
24401;SDS011;12539;48.808;11.292;2022-09-23T01:58:31;5.03;;;3.92;;
24401;SDS011;12539;48.808;11.292;2022-09-23T02:01:20;4.95;;;4.38;;
24401;SDS011;12539;48.808;11.292;2022-09-23T02:04:12;5.20;;;4.47;;
24401;SDS011;12539;48.808;11.292;2022-09-23T02:06:45;5.38;;;4.40;;
24401;SDS011;12539;48.808;11.292;2022-09-23T02:09:17;5.32;;;4.15;;
24401;SDS011;12539;48.808;11.292;2022-09-23T02:11:48;4.93;;;3.97;;
24401;SDS011;12539;48.808;11.292;2022-09-23T02:14:18;5.97;;;4.35;;
24401;SDS011;12539;48.808;11.292;2022-09-23T02:16:52;7.30;;;4.25;;
24401;SDS011;12539;48.808;11.292;2022-09-23T02:19:27;6.28;;;4.90;;
24401;SDS011;12539;48.808;11.292;2022-09-23T02:25:07;6.85;;;4.38;;
24401;SDS011;12539;48.808;11.292;2022-09-23T02:30:15;5.93;;;4.75;;
24401;SDS011;12539;48.808;11.292;2022-09-23T02:35:22;4.70;;;3.88;;
24401;SDS011;12539;48.808;11.292;2022-09-23T02:41:06;5.00;;;3.53;;
24401;SDS011;12539;48.808;11.292;2022-09-23T02:43:46;5.32;;;4.30;;
24401;SDS011;12539;48.808;11.292;2022-09-23T02:46:16;5.93;;;4.38;;
24401;SDS011;12539;48.808;11.292;2022-09-23T02:48:48;5.03;;;3.95;;
24401;SDS011;12539;48.808;11.292;2022-09-23T02:51:17;5.88;;;4.38;;
24401;SDS011;12539;48.808;11.292;2022-09-23T02:53:43;5.05;;;3.83;;
24401;SDS011;12539;48.808;11.292;2022-09-23T02:56:14;4.30;;;3.90;;
24401;SDS011;12539;48.808;11.292;2022-09-23T02:58:43;5.30;;;4.28;;
24401;SDS011;12539;48.808;11.292;2022-09-23T03:09:24;5.68;;;4.25;;
24401;SDS011;12539;48.808;11.292;2022-09-23T03:20:55;6.93;;;4.53;;
24401;SDS011;12539;48.808;11.292;2022-09-23T03:23:21;6.28;;;5.10;;
24401;SDS011;12539;48.808;11.292;2022-09-23T03:25:52;6.63;;;4.18;;
24401;SDS011;12539;48.808;11.292;2022-09-23T03:28:20;9.27;;;5.28;;
24401;SDS011;12539;48.808;11.292;2022-09-23T03:30:50;5.78;;;4.57;;
24401;SDS011;12539;48.808;11.292;2022-09-23T03:33:17;5.20;;;4.70;;
24401;SDS011;12539;48.808;11.292;2022-09-23T03:36:08;5.70;;;4.90;;
24401;SDS011;12539;48.808;11.292;2022-09-23T03:38:53;5.68;;;4.40;;
24401;SDS011;12539;48.808;11.292;2022-09-23T03:41:32;7.38;;;4.78;;
24401;SDS011;12539;48.808;11.292;2022-09-23T03:44:02;5.60;;;4.80;;
24401;SDS011;12539;48.808;11.292;2022-09-23T03:46:31;5.68;;;4.57;;
24401;SDS011;12539;48.808;11.292;2022-09-23T03:49:03;5.03;;;4.53;;
24401;SDS011;12539;48.808;11.292;2022-09-23T03:51:33;7.53;;;4.88;;
24401;SDS011;12539;48.808;11.292;2022-09-23T03:53:59;5.43;;;4.60;;
24401;SDS011;12539;48.808;11.292;2022-09-23T03:56:25;6.18;;;5.45;;
24401;SDS011;12539;48.808;11.292;2022-09-23T03:58:50;5.40;;;4.90;;
24401;SDS011;12539;48.808;11.292;2022-09-23T04:01:16;4.22;;;3.78;;
24401;SDS011;12539;48.808;11.292;2022-09-23T04:03:41;6.82;;;3.95;;
24401;SDS011;12539;48.808;11.292;2022-09-23T04:06:07;10.18;;;5.68;;
24401;SDS011;12539;48.808;11.292;2022-09-23T04:08:33;8.02;;;5.57;;
24401;SDS011;12539;48.808;11.292;2022-09-23T04:10:59;7.43;;;5.13;;
24401;SDS011;12539;48.808;11.292;2022-09-23T04:13:26;6.03;;;4.82;;
24401;SDS011;12539;48.808;11.292;2022-09-23T04:15:52;7.85;;;4.57;;
24401;SDS011;12539;48.808;11.292;2022-09-23T04:18:18;7.57;;;5.70;;
24401;SDS011;12539;48.808;11.292;2022-09-23T04:20:43;5.45;;;4.60;;
24401;SDS011;12539;48.808;11.292;2022-09-23T04:23:09;6.10;;;4.82;;
24401;SDS011;12539;48.808;11.292;2022-09-23T04:25:35;5.13;;;4.18;;
24401;SDS011;12539;48.808;11.292;2022-09-23T04:28:00;6.50;;;4.90;;
24401;SDS011;12539;48.808;11.292;2022-09-23T04:30:26;5.70;;;4.75;;
24401;SDS011;12539;48.808;11.292;2022-09-23T04:32:52;6.05;;;4.75;;
24401;SDS011;12539;48.808;11.292;2022-09-23T04:35:17;5.53;;;4.70;;
24401;SDS011;12539;48.808;11.292;2022-09-23T04:37:46;5.75;;;4.28;;
24401;SDS011;12539;48.808;11.292;2022-09-23T04:40:12;5.13;;;4.45;;
24401;SDS011;12539;48.808;11.292;2022-09-23T04:42:37;5.65;;;4.70;;
24401;SDS011;12539;48.808;11.292;2022-09-23T04:45:03;8.88;;;5.72;;
24401;SDS011;12539;48.808;11.292;2022-09-23T04:47:30;7.00;;;5.60;;
24401;SDS011;12539;48.808;11.292;2022-09-23T04:49:56;10.20;;;5.55;;
24401;SDS011;12539;48.808;11.292;2022-09-23T04:52:21;8.95;;;5.68;;
24401;SDS011;12539;48.808;11.292;2022-09-23T04:54:47;8.15;;;5.40;;
24401;SDS011;12539;48.808;11.292;2022-09-23T04:57:13;9.82;;;5.75;;
24401;SDS011;12539;48.808;11.292;2022-09-23T04:59:38;11.65;;;6.28;;
24401;SDS011;12539;48.808;11.292;2022-09-23T05:02:05;11.15;;;6.70;;
24401;SDS011;12539;48.808;11.292;2022-09-23T05:04:31;12.50;;;7.47;;
24401;SDS011;12539;48.808;11.292;2022-09-23T05:06:56;9.63;;;6.43;;
24401;SDS011;12539;48.808;11.292;2022-09-23T05:09:22;15.43;;;6.47;;
24401;SDS011;12539;48.808;11.292;2022-09-23T05:11:47;8.63;;;5.43;;
24401;SDS011;12539;48.808;11.292;2022-09-23T05:14:13;9.82;;;6.13;;
24401;SDS011;12539;48.808;11.292;2022-09-23T05:16:39;8.25;;;6.03;;
24401;SDS011;12539;48.808;11.292;2022-09-23T05:19:05;10.68;;;6.93;;
24401;SDS011;12539;48.808;11.292;2022-09-23T05:21:30;10.15;;;6.22;;
24401;SDS011;12539;48.808;11.292;2022-09-23T05:23:56;9.88;;;6.35;;
24401;SDS011;12539;48.808;11.292;2022-09-23T05:26:26;10.32;;;6.00;;
24401;SDS011;12539;48.808;11.292;2022-09-23T05:28:54;8.55;;;5.97;;
24401;SDS011;12539;48.808;11.292;2022-09-23T05:31:21;11.73;;;6.00;;
24401;SDS011;12539;48.808;11.292;2022-09-23T05:33:51;8.77;;;6.32;;
24401;SDS011;12539;48.808;11.292;2022-09-23T05:36:20;14.35;;;7.68;;
24401;SDS011;12539;48.808;11.292;2022-09-23T05:38:47;7.28;;;5.90;;
24401;SDS011;12539;48.808;11.292;2022-09-23T05:41:14;10.25;;;7.18;;
24401;SDS011;12539;48.808;11.292;2022-09-23T05:43:41;11.25;;;7.00;;
24401;SDS011;12539;48.808;11.292;2022-09-23T05:46:14;10.35;;;6.45;;
24401;SDS011;12539;48.808;11.292;2022-09-23T05:48:42;7.90;;;5.93;;
24401;SDS011;12539;48.808;11.292;2022-09-23T05:51:12;11.30;;;6.82;;
24401;SDS011;12539;48.808;11.292;2022-09-23T05:53:39;9.70;;;6.93;;
24401;SDS011;12539;48.808;11.292;2022-09-23T05:56:09;7.45;;;6.50;;
24401;SDS011;12539;48.808;11.292;2022-09-23T05:58:36;10.23;;;7.68;;
24401;SDS011;12539;48.808;11.292;2022-09-23T06:01:11;11.55;;;8.40;;
24401;SDS011;12539;48.808;11.292;2022-09-23T06:03:44;17.75;;;10.90;;
24401;SDS011;12539;48.808;11.292;2022-09-23T06:06:11;22.17;;;13.10;;
24401;SDS011;12539;48.808;11.292;2022-09-23T06:08:44;23.55;;;13.80;;
24401;SDS011;12539;48.808;11.292;2022-09-23T06:11:11;13.43;;;7.30;;
24401;SDS011;12539;48.808;11.292;2022-09-23T06:13:37;11.95;;;7.28;;
24401;SDS011;12539;48.808;11.292;2022-09-23T06:16:05;6.97;;;6.28;;
24401;SDS011;12539;48.808;11.292;2022-09-23T06:18:36;12.20;;;7.03;;
24401;SDS011;12539;48.808;11.292;2022-09-23T06:21:03;10.05;;;7.35;;
24401;SDS011;12539;48.808;11.292;2022-09-23T06:23:29;7.20;;;5.80;;
24401;SDS011;12539;48.808;11.292;2022-09-23T06:26:14;9.20;;;7.10;;
24401;SDS011;12539;48.808;11.292;2022-09-23T06:28:41;9.77;;;7.32;;
24401;SDS011;12539;48.808;11.292;2022-09-23T06:31:12;9.95;;;8.20;;
24401;SDS011;12539;48.808;11.292;2022-09-23T06:33:39;11.27;;;8.32;;
24401;SDS011;12539;48.808;11.292;2022-09-23T06:36:06;12.13;;;9.68;;
24401;SDS011;12539;48.808;11.292;2022-09-23T06:38:33;10.63;;;9.25;;
24401;SDS011;12539;48.808;11.292;2022-09-23T06:40:59;11.23;;;8.35;;
24401;SDS011;12539;48.808;11.292;2022-09-23T06:43:27;9.45;;;7.40;;
24401;SDS011;12539;48.808;11.292;2022-09-23T06:45:53;9.35;;;8.15;;
24401;SDS011;12539;48.808;11.292;2022-09-23T06:48:20;8.02;;;6.57;;
24401;SDS011;12539;48.808;11.292;2022-09-23T06:50:48;7.13;;;6.43;;
24401;SDS011;12539;48.808;11.292;2022-09-23T06:53:14;9.13;;;7.10;;
24401;SDS011;12539;48.808;11.292;2022-09-23T06:55:40;10.43;;;7.63;;
24401;SDS011;12539;48.808;11.292;2022-09-23T06:58:06;10.02;;;8.35;;
24401;SDS011;12539;48.808;11.292;2022-09-23T07:00:33;8.07;;;7.25;;
24401;SDS011;12539;48.808;11.292;2022-09-23T07:02:59;10.27;;;7.85;;
24401;SDS011;12539;48.808;11.292;2022-09-23T07:05:25;8.90;;;8.00;;
24401;SDS011;12539;48.808;11.292;2022-09-23T07:07:50;8.05;;;6.85;;
24401;SDS011;12539;48.808;11.292;2022-09-23T07:10:17;10.32;;;8.02;;
24401;SDS011;12539;48.808;11.292;2022-09-23T07:12:43;8.45;;;7.53;;
24401;SDS011;12539;48.808;11.292;2022-09-23T07:15:09;10.23;;;7.50;;
24401;SDS011;12539;48.808;11.292;2022-09-23T07:17:35;8.80;;;7.70;;
24401;SDS011;12539;48.808;11.292;2022-09-23T07:20:01;8.73;;;6.97;;
24401;SDS011;12539;48.808;11.292;2022-09-23T07:22:27;8.73;;;7.03;;
24401;SDS011;12539;48.808;11.292;2022-09-23T07:24:53;9.30;;;7.90;;
24401;SDS011;12539;48.808;11.292;2022-09-23T07:27:24;10.70;;;8.43;;
24401;SDS011;12539;48.808;11.292;2022-09-23T07:29:51;11.80;;;9.40;;
24401;SDS011;12539;48.808;11.292;2022-09-23T07:32:19;8.93;;;8.02;;
24401;SDS011;12539;48.808;11.292;2022-09-23T07:34:46;8.82;;;7.60;;
24401;SDS011;12539;48.808;11.292;2022-09-23T07:37:13;13.27;;;8.88;;
24401;SDS011;12539;48.808;11.292;2022-09-23T07:39:41;11.27;;;8.95;;
24401;SDS011;12539;48.808;11.292;2022-09-23T07:42:07;11.30;;;9.73;;
24401;SDS011;12539;48.808;11.292;2022-09-23T07:44:33;12.02;;;8.77;;
24401;SDS011;12539;48.808;11.292;2022-09-23T07:46:59;10.85;;;8.20;;
24401;SDS011;12539;48.808;11.292;2022-09-23T07:49:25;8.57;;;7.38;;
24401;SDS011;12539;48.808;11.292;2022-09-23T07:51:51;10.50;;;9.35;;
24401;SDS011;12539;48.808;11.292;2022-09-23T07:54:18;15.65;;;9.52;;
24401;SDS011;12539;48.808;11.292;2022-09-23T07:56:44;9.82;;;8.80;;
24401;SDS011;12539;48.808;11.292;2022-09-23T07:59:35;10.50;;;9.02;;
24401;SDS011;12539;48.808;11.292;2022-09-23T08:02:04;11.23;;;10.00;;
24401;SDS011;12539;48.808;11.292;2022-09-23T08:04:31;11.55;;;9.60;;
24401;SDS011;12539;48.808;11.292;2022-09-23T08:06:59;8.63;;;7.63;;
24401;SDS011;12539;48.808;11.292;2022-09-23T08:09:28;12.23;;;8.70;;
24401;SDS011;12539;48.808;11.292;2022-09-23T08:11:56;10.80;;;8.27;;
24401;SDS011;12539;48.808;11.292;2022-09-23T08:14:22;12.02;;;8.75;;
24401;SDS011;12539;48.808;11.292;2022-09-23T08:16:48;12.02;;;8.68;;
24401;SDS011;12539;48.808;11.292;2022-09-23T08:19:15;7.18;;;6.28;;
24401;SDS011;12539;48.808;11.292;2022-09-23T08:21:41;8.00;;;6.88;;
24401;SDS011;12539;48.808;11.292;2022-09-23T08:24:08;9.90;;;8.90;;
24401;SDS011;12539;48.808;11.292;2022-09-23T08:26:37;9.48;;;8.00;;
24401;SDS011;12539;48.808;11.292;2022-09-23T08:29:03;9.68;;;8.18;;
24401;SDS011;12539;48.808;11.292;2022-09-23T08:31:30;8.00;;;7.18;;
24401;SDS011;12539;48.808;11.292;2022-09-23T08:33:57;8.02;;;7.22;;
24401;SDS011;12539;48.808;11.292;2022-09-23T08:36:24;8.10;;;7.30;;
24401;SDS011;12539;48.808;11.292;2022-09-23T08:38:50;10.65;;;8.05;;
24401;SDS011;12539;48.808;11.292;2022-09-23T08:44:07;9.13;;;7.63;;
24401;SDS011;12539;48.808;11.292;2022-09-23T08:46:42;9.23;;;7.38;;
24401;SDS011;12539;48.808;11.292;2022-09-23T08:49:26;8.68;;;7.78;;
24401;SDS011;12539;48.808;11.292;2022-09-23T08:52:02;8.82;;;6.00;;
24401;SDS011;12539;48.808;11.292;2022-09-23T08:54:38;9.07;;;8.18;;
24401;SDS011;12539;48.808;11.292;2022-09-23T08:57:05;7.97;;;7.18;;
24401;SDS011;12539;48.808;11.292;2022-09-23T09:02:27;6.85;;;6.03;;
24401;SDS011;12539;48.808;11.292;2022-09-23T09:04:59;9.18;;;7.28;;
24401;SDS011;12539;48.808;11.292;2022-09-23T09:07:31;8.30;;;6.68;;
24401;SDS011;12539;48.808;11.292;2022-09-23T09:10:20;8.88;;;7.55;;
24401;SDS011;12539;48.808;11.292;2022-09-23T09:12:58;7.93;;;7.13;;
24401;SDS011;12539;48.808;11.292;2022-09-23T09:15:36;7.70;;;6.40;;
24401;SDS011;12539;48.808;11.292;2022-09-23T09:23:28;9.25;;;5.85;;
24401;SDS011;12539;48.808;11.292;2022-09-23T09:26:03;8.10;;;7.28;;
24401;SDS011;12539;48.808;11.292;2022-09-23T09:28:35;10.57;;;7.55;;
24401;SDS011;12539;48.808;11.292;2022-09-23T09:31:14;5.88;;;5.32;;
24401;SDS011;12539;48.808;11.292;2022-09-23T09:33:53;5.32;;;4.82;;
24401;SDS011;12539;48.808;11.292;2022-09-23T09:38:55;5.50;;;4.93;;
24401;SDS011;12539;48.808;11.292;2022-09-23T09:41:25;6.20;;;5.13;;
24401;SDS011;12539;48.808;11.292;2022-09-23T09:43:55;5.18;;;4.68;;
24401;SDS011;12539;48.808;11.292;2022-09-23T09:48:59;6.93;;;5.25;;
24401;SDS011;12539;48.808;11.292;2022-09-23T09:51:33;4.85;;;4.35;;
24401;SDS011;12539;48.808;11.292;2022-09-23T09:54:16;6.45;;;4.68;;
24401;SDS011;12539;48.808;11.292;2022-09-23T09:56:47;5.32;;;4.43;;
24401;SDS011;12539;48.808;11.292;2022-09-23T09:59:18;7.97;;;5.97;;
24401;SDS011;12539;48.808;11.292;2022-09-23T10:01:49;5.45;;;4.45;;
24401;SDS011;12539;48.808;11.292;2022-09-23T10:04:36;5.25;;;4.75;;
24401;SDS011;12539;48.808;11.292;2022-09-23T10:07:14;4.13;;;3.35;;
24401;SDS011;12539;48.808;11.292;2022-09-23T10:09:47;5.45;;;4.38;;
24401;SDS011;12539;48.808;11.292;2022-09-23T10:12:15;6.55;;;4.07;;
24401;SDS011;12539;48.808;11.292;2022-09-23T10:14:47;5.45;;;4.70;;
24401;SDS011;12539;48.808;11.292;2022-09-23T10:17:21;4.88;;;4.35;;
24401;SDS011;12539;48.808;11.292;2022-09-23T10:20:01;7.22;;;4.13;;
24401;SDS011;12539;48.808;11.292;2022-09-23T10:25:02;4.18;;;3.40;;
24401;SDS011;12539;48.808;11.292;2022-09-23T10:27:34;4.68;;;3.53;;
24401;SDS011;12539;48.808;11.292;2022-09-23T10:30:01;4.10;;;3.35;;
24401;SDS011;12539;48.808;11.292;2022-09-23T10:32:49;5.22;;;4.72;;
24401;SDS011;12539;48.808;11.292;2022-09-23T10:35:19;3.97;;;3.58;;
24401;SDS011;12539;48.808;11.292;2022-09-23T10:37:51;4.78;;;4.38;;
24401;SDS011;12539;48.808;11.292;2022-09-23T10:40:20;4.95;;;3.95;;
24401;SDS011;12539;48.808;11.292;2022-09-23T10:43:24;4.93;;;4.35;;
24401;SDS011;12539;48.808;11.292;2022-09-23T10:46:28;6.20;;;4.13;;
24401;SDS011;12539;48.808;11.292;2022-09-23T10:51:40;4.40;;;3.78;;
24401;SDS011;12539;48.808;11.292;2022-09-23T11:00:32;4.85;;;4.00;;
24401;SDS011;12539;48.808;11.292;2022-09-23T11:23:44;4.35;;;3.90;;
24401;SDS011;12539;48.808;11.292;2022-09-23T11:29:12;4.38;;;3.80;;
24401;SDS011;12539;48.808;11.292;2022-09-23T11:32:06;4.95;;;3.55;;
24401;SDS011;12539;48.808;11.292;2022-09-23T11:42:33;4.68;;;3.95;;
24401;SDS011;12539;48.808;11.292;2022-09-23T11:47:53;4.72;;;3.60;;
24401;SDS011;12539;48.808;11.292;2022-09-23T11:55:55;3.50;;;3.15;;
24401;SDS011;12539;48.808;11.292;2022-09-23T12:01:31;3.97;;;3.20;;
24401;SDS011;12539;48.808;11.292;2022-09-23T12:04:12;3.38;;;2.92;;
24401;SDS011;12539;48.808;11.292;2022-09-23T12:06:53;3.90;;;2.95;;
24401;SDS011;12539;48.808;11.292;2022-09-23T12:20:55;2.53;;;2.33;;
24401;SDS011;12539;48.808;11.292;2022-09-23T12:26:51;2.75;;;2.35;;
24401;SDS011;12539;48.808;11.292;2022-09-23T12:29:21;3.15;;;2.50;;
24401;SDS011;12539;48.808;11.292;2022-09-23T12:31:50;4.10;;;1.95;;
24401;SDS011;12539;48.808;11.292;2022-09-23T12:34:21;4.95;;;2.08;;
24401;SDS011;12539;48.808;11.292;2022-09-23T12:36:51;6.40;;;2.47;;
24401;SDS011;12539;48.808;11.292;2022-09-23T12:39:25;3.35;;;2.50;;
24401;SDS011;12539;48.808;11.292;2022-09-23T12:42:03;3.92;;;2.25;;
24401;SDS011;12539;48.808;11.292;2022-09-23T12:44:44;3.17;;;2.30;;
24401;SDS011;12539;48.808;11.292;2022-09-23T12:49:49;2.60;;;2.35;;
24401;SDS011;12539;48.808;11.292;2022-09-23T12:52:31;3.22;;;2.13;;
24401;SDS011;12539;48.808;11.292;2022-09-23T12:55:08;2.72;;;2.33;;
24401;SDS011;12539;48.808;11.292;2022-09-23T12:57:49;3.15;;;2.58;;
24401;SDS011;12539;48.808;11.292;2022-09-23T13:00:24;4.35;;;2.55;;
24401;SDS011;12539;48.808;11.292;2022-09-23T13:02:52;2.80;;;2.47;;
24401;SDS011;12539;48.808;11.292;2022-09-23T13:08:39;3.70;;;2.20;;
24401;SDS011;12539;48.808;11.292;2022-09-23T13:11:22;2.58;;;2.25;;
24401;SDS011;12539;48.808;11.292;2022-09-23T13:13:52;2.38;;;2.15;;
24401;SDS011;12539;48.808;11.292;2022-09-23T13:16:31;3.38;;;2.70;;
24401;SDS011;12539;48.808;11.292;2022-09-23T13:26:53;2.63;;;2.00;;
24401;SDS011;12539;48.808;11.292;2022-09-23T13:29:29;4.25;;;3.00;;
24401;SDS011;12539;48.808;11.292;2022-09-23T13:31:57;2.65;;;2.35;;
24401;SDS011;12539;48.808;11.292;2022-09-23T13:34:26;3.05;;;2.53;;
24401;SDS011;12539;48.808;11.292;2022-09-23T13:37:10;3.63;;;2.10;;
24401;SDS011;12539;48.808;11.292;2022-09-23T13:39:45;4.30;;;2.47;;
24401;SDS011;12539;48.808;11.292;2022-09-23T13:42:27;3.97;;;2.25;;
24401;SDS011;12539;48.808;11.292;2022-09-23T13:44:54;5.45;;;2.00;;
24401;SDS011;12539;48.808;11.292;2022-09-23T13:47:26;5.03;;;1.88;;
24401;SDS011;12539;48.808;11.292;2022-09-23T13:49:54;2.33;;;1.73;;
24401;SDS011;12539;48.808;11.292;2022-09-23T13:52:23;3.40;;;1.80;;
24401;SDS011;12539;48.808;11.292;2022-09-23T13:54:51;2.42;;;2.15;;
24401;SDS011;12539;48.808;11.292;2022-09-23T13:57:27;3.00;;;1.80;;
24401;SDS011;12539;48.808;11.292;2022-09-23T13:59:59;2.65;;;2.28;;
24401;SDS011;12539;48.808;11.292;2022-09-23T14:02:26;6.32;;;1.88;;
24401;SDS011;12539;48.808;11.292;2022-09-23T14:04:56;2.35;;;1.95;;
24401;SDS011;12539;48.808;11.292;2022-09-23T14:07:25;2.30;;;2.10;;
24401;SDS011;12539;48.808;11.292;2022-09-23T14:09:51;3.50;;;1.88;;
24401;SDS011;12539;48.808;11.292;2022-09-23T14:12:19;2.20;;;2.00;;
24401;SDS011;12539;48.808;11.292;2022-09-23T14:14:48;2.63;;;1.48;;
24401;SDS011;12539;48.808;11.292;2022-09-23T14:17:16;2.60;;;2.40;;
24401;SDS011;12539;48.808;11.292;2022-09-23T14:19:44;1.88;;;1.67;;
24401;SDS011;12539;48.808;11.292;2022-09-23T14:22:20;2.50;;;2.08;;
24401;SDS011;12539;48.808;11.292;2022-09-23T14:24:50;2.20;;;2.03;;
24401;SDS011;12539;48.808;11.292;2022-09-23T14:27:21;5.53;;;2.03;;
24401;SDS011;12539;48.808;11.292;2022-09-23T14:29:49;5.20;;;2.25;;
24401;SDS011;12539;48.808;11.292;2022-09-23T14:40:33;3.05;;;2.67;;
24401;SDS011;12539;48.808;11.292;2022-09-23T14:43:17;1.70;;;1.50;;
24401;SDS011;12539;48.808;11.292;2022-09-23T14:45:52;1.42;;;1.33;;
24401;SDS011;12539;48.808;11.292;2022-09-23T14:51:00;2.35;;;1.95;;
24401;SDS011;12539;48.808;11.292;2022-09-23T14:58:45;2.33;;;2.08;;
24401;SDS011;12539;48.808;11.292;2022-09-23T15:03:56;1.52;;;1.42;;
24401;SDS011;12539;48.808;11.292;2022-09-23T15:06:34;3.00;;;1.80;;
24401;SDS011;12539;48.808;11.292;2022-09-23T15:09:05;2.20;;;1.65;;
24401;SDS011;12539;48.808;11.292;2022-09-23T15:11:33;1.58;;;1.48;;
24401;SDS011;12539;48.808;11.292;2022-09-23T15:14:00;3.92;;;2.72;;
24401;SDS011;12539;48.808;11.292;2022-09-23T15:16:27;5.25;;;3.03;;
24401;SDS011;12539;48.808;11.292;2022-09-23T15:18:54;4.97;;;3.30;;
24401;SDS011;12539;48.808;11.292;2022-09-23T15:21:29;1.90;;;1.80;;
24401;SDS011;12539;48.808;11.292;2022-09-23T15:24:23;2.78;;;2.20;;
24401;SDS011;12539;48.808;11.292;2022-09-23T15:27:00;5.57;;;2.92;;
24401;SDS011;12539;48.808;11.292;2022-09-23T15:29:33;3.33;;;2.33;;
24401;SDS011;12539;48.808;11.292;2022-09-23T15:31:59;3.53;;;3.22;;
24401;SDS011;12539;48.808;11.292;2022-09-23T15:34:25;3.72;;;3.05;;
24401;SDS011;12539;48.808;11.292;2022-09-23T15:36:50;2.35;;;1.95;;
24401;SDS011;12539;48.808;11.292;2022-09-23T15:39:16;3.42;;;2.67;;
24401;SDS011;12539;48.808;11.292;2022-09-23T15:41:42;1.90;;;1.70;;
24401;SDS011;12539;48.808;11.292;2022-09-23T15:44:11;1.70;;;1.30;;
24401;SDS011;12539;48.808;11.292;2022-09-23T15:46:38;2.50;;;1.30;;
24401;SDS011;12539;48.808;11.292;2022-09-23T15:49:14;4.72;;;2.70;;
24401;SDS011;12539;48.808;11.292;2022-09-23T15:51:50;3.90;;;3.30;;
24401;SDS011;12539;48.808;11.292;2022-09-23T15:54:16;3.22;;;2.92;;
24401;SDS011;12539;48.808;11.292;2022-09-23T15:56:43;3.95;;;2.60;;
24401;SDS011;12539;48.808;11.292;2022-09-23T15:59:09;6.72;;;4.03;;
24401;SDS011;12539;48.808;11.292;2022-09-23T16:01:35;3.85;;;2.58;;
24401;SDS011;12539;48.808;11.292;2022-09-23T16:04:02;3.63;;;2.55;;
24401;SDS011;12539;48.808;11.292;2022-09-23T16:06:31;5.05;;;3.30;;
24401;SDS011;12539;48.808;11.292;2022-09-23T16:08:59;5.10;;;3.00;;
24401;SDS011;12539;48.808;11.292;2022-09-23T16:11:29;4.50;;;2.80;;
24401;SDS011;12539;48.808;11.292;2022-09-23T16:13:58;4.05;;;2.70;;
24401;SDS011;12539;48.808;11.292;2022-09-23T16:16:24;2.33;;;2.13;;
24401;SDS011;12539;48.808;11.292;2022-09-23T16:18:51;3.60;;;2.80;;
24401;SDS011;12539;48.808;11.292;2022-09-23T16:21:18;2.15;;;1.85;;
24401;SDS011;12539;48.808;11.292;2022-09-23T16:23:53;7.15;;;3.17;;
24401;SDS011;12539;48.808;11.292;2022-09-23T16:26:22;2.28;;;1.55;;
24401;SDS011;12539;48.808;11.292;2022-09-23T16:28:50;5.40;;;3.35;;
24401;SDS011;12539;48.808;11.292;2022-09-23T16:31:17;4.03;;;1.80;;
24401;SDS011;12539;48.808;11.292;2022-09-23T16:33:46;4.25;;;1.77;;
24401;SDS011;12539;48.808;11.292;2022-09-23T16:36:14;5.35;;;2.45;;
24401;SDS011;12539;48.808;11.292;2022-09-23T16:38:52;14.23;;;4.22;;
24401;SDS011;12539;48.808;11.292;2022-09-23T16:41:22;16.50;;;3.63;;
24401;SDS011;12539;48.808;11.292;2022-09-23T16:43:49;5.90;;;2.88;;
24401;SDS011;12539;48.808;11.292;2022-09-23T16:46:16;5.43;;;2.55;;
24401;SDS011;12539;48.808;11.292;2022-09-23T16:48:43;3.20;;;2.55;;
24401;SDS011;12539;48.808;11.292;2022-09-23T16:51:13;3.47;;;2.50;;
24401;SDS011;12539;48.808;11.292;2022-09-23T16:53:44;5.30;;;2.42;;
24401;SDS011;12539;48.808;11.292;2022-09-23T16:56:15;3.35;;;1.95;;
24401;SDS011;12539;48.808;11.292;2022-09-23T16:58:42;4.30;;;2.20;;
24401;SDS011;12539;48.808;11.292;2022-09-23T17:01:14;3.25;;;2.58;;
24401;SDS011;12539;48.808;11.292;2022-09-23T17:04:05;2.85;;;2.45;;
24401;SDS011;12539;48.808;11.292;2022-09-23T17:06:31;3.83;;;2.60;;
24401;SDS011;12539;48.808;11.292;2022-09-23T17:08:57;3.88;;;2.80;;
24401;SDS011;12539;48.808;11.292;2022-09-23T17:11:23;3.67;;;2.80;;
24401;SDS011;12539;48.808;11.292;2022-09-23T17:13:48;6.35;;;2.55;;
24401;SDS011;12539;48.808;11.292;2022-09-23T17:16:23;3.38;;;2.38;;
24401;SDS011;12539;48.808;11.292;2022-09-23T17:18:51;3.00;;;2.45;;
24401;SDS011;12539;48.808;11.292;2022-09-23T17:21:21;2.80;;;2.47;;
24401;SDS011;12539;48.808;11.292;2022-09-23T17:23:52;4.13;;;2.50;;
24401;SDS011;12539;48.808;11.292;2022-09-23T17:26:19;2.85;;;2.58;;
24401;SDS011;12539;48.808;11.292;2022-09-23T17:28:48;3.72;;;2.88;;
24401;SDS011;12539;48.808;11.292;2022-09-23T17:31:15;3.80;;;3.03;;
24401;SDS011;12539;48.808;11.292;2022-09-23T17:33:41;4.53;;;2.85;;
24401;SDS011;12539;48.808;11.292;2022-09-23T17:36:07;5.57;;;2.83;;
24401;SDS011;12539;48.808;11.292;2022-09-23T17:38:34;7.05;;;3.58;;
24401;SDS011;12539;48.808;11.292;2022-09-23T17:41:03;3.50;;;3.20;;